Dno, Russia
Current Conditions -  °F | °C
As of 1:00 PM on Thursday 23 Oct 2014 (Local Time) from ULOO Reporting Station
Clear Clear  
Wind Chill: 19°   Ceiling: Unl
Heat Index: 25°   Visibility: 4mi
Dew Point: 10°   Wind: 4mph
Humidity: 54%   Direction: 80°E
Pressure: 30.5"   Gusts: NA
Location:  57.83°N, 29.98°E
Report Text: ULOO 231000Z 08002MPS P6000 NSC M04/M12 Q1033 01090070 NOSIGRMK QFE770
Loading
Personal Weather Stations






























Interactive Weather Map
Tropical Storm Tracking
New forecast layout! Learn more

10-Day Weather Forecast

Advertisements
Track Severe Weather on mobile